Terminal Aerodrome Forecast
Issued by NWS Boise, ID

Home | Current Version | Previous Version | Text Only | Print | Product List | Glossary On
Versions: 1 2 3 4 5 6 7 8 9 10 11 12 13 14 15
000
FTUS45 KBOI 230655 AAA
TAFBOI
TAF AMD
KBOI 230655Z 2307/2406 29006KT P6SM FEW080
     FM231600 32015KT P6SM BKN120
     FM240100 12008KT P6SM BKN080=

USA.gov is the U.S. government's official web portal to all federal, state and local government web resources and services.